Time;durP1;ratioP1;P1;durP2;ratioP2;P2;SDS_P1;SDS_P2;PMS_P1;PMS_P2;Temp;Humidity;BMP_temperature;BMP_pressure;BME280_temperature;BME280_humidity;BME280_pressure;Samples;Min_cycle;Max_cycle;Signal;HPM_P1;HPM_P2
2021/03/06 00:00:11;;;;;;;1.53;1.00;;;7.70;63.20;;;;;;5054547;28;20025;-70
2021/03/06 00:02:37;;;;;;;1.57;1.00;;;7.60;62.90;;;;;;5055697;28;20078;-70
2021/03/06 00:05:03;;;;;;;1.23;0.70;;;7.60;62.70;;;;;;5055879;28;20025;-70
2021/03/06 00:07:29;;;;;;;1.00;0.90;;;7.50;62.10;;;;;;5055577;28;20052;-69
2021/03/06 00:09:55;;;;;;;1.70;0.83;;;7.50;62.60;;;;;;5055676;28;20155;-71
2021/03/06 00:12:21;;;;;;;1.73;1.10;;;7.50;61.70;;;;;;5055751;28;20434;-69
2021/03/06 00:14:46;;;;;;;2.13;1.00;;;7.50;61.40;;;;;;5055745;28;20501;-69
2021/03/06 00:17:12;;;;;;;1.53;1.10;;;7.50;61.00;;;;;;5055467;28;20049;-69
2021/03/06 00:19:38;;;;;;;1.50;1.10;;;7.50;61.30;;;;;;5055414;28;20025;-70
2021/03/06 00:22:04;;;;;;;1.47;1.10;;;7.50;60.60;;;;;;5054030;28;20067;-70
2021/03/06 00:24:29;;;;;;;1.80;1.17;;;7.40;61.00;;;;;;5054485;28;20029;-70
2021/03/06 00:26:56;;;;;;;1.10;1.00;;;7.40;60.60;;;;;;5053133;28;20056;-69
2021/03/06 00:29:22;;;;;;;9.10;1.47;;;7.40;60.00;;;;;;5053416;28;20499;-69
2021/03/06 00:31:48;;;;;;;1.43;0.80;;;7.40;60.10;;;;;;5054323;28;20057;-71
2021/03/06 00:34:14;;;;;;;2.50;1.10;;;7.40;59.50;;;;;;5053482;28;20052;-70
2021/03/06 00:36:40;;;;;;;2.10;1.40;;;7.30;60.20;;;;;;5054189;28;20041;-70
2021/03/06 00:39:06;;;;;;;1.77;1.30;;;7.40;60.30;;;;;;5053060;28;20043;-70
2021/03/06 00:41:33;;;;;;;1.60;1.37;;;7.30;60.00;;;;;;5053176;28;20056;-70
2021/03/06 00:43:59;;;;;;;3.10;1.77;;;7.20;60.30;;;;;;5054190;28;20025;-70
2021/03/06 00:46:25;;;;;;;1.93;1.60;;;7.20;60.00;;;;;;5053132;28;20041;-70
2021/03/06 00:48:50;;;;;;;2.10;1.80;;;7.20;60.00;;;;;;5053401;28;20033;-69
2021/03/06 00:51:16;;;;;;;3.73;1.57;;;7.10;59.10;;;;;;5053662;28;20029;-70
2021/03/06 00:53:42;;;;;;;2.00;1.67;;;7.10;59.70;;;;;;5052891;28;20052;-70
2021/03/06 00:56:08;;;;;;;2.50;1.80;;;7.20;59.90;;;;;;5054369;28;20044;-70
2021/03/06 00:58:33;;;;;;;3.53;2.00;;;7.10;59.50;;;;;;5053184;28;20029;-70
2021/03/06 01:01:01;;;;;;;2.53;1.90;;;7.10;60.00;;;;;;5054404;28;20087;-70
2021/03/06 01:03:27;;;;;;;2.53;2.00;;;7.10;59.30;;;;;;5054423;28;20032;-69
2021/03/06 01:05:53;;;;;;;2.80;2.23;;;7.00;58.90;;;;;;5054488;28;20025;-70
2021/03/06 01:08:18;;;;;;;2.93;2.30;;;7.00;57.80;;;;;;5053982;28;20025;-70
2021/03/06 01:10:45;;;;;;;2.93;2.07;;;7.10;57.70;;;;;;5052905;28;20021;-70
2021/03/06 01:13:11;;;;;;;3.43;2.33;;;7.10;57.40;;;;;;5053165;28;20040;-70
2021/03/06 01:15:38;;;;;;;4.17;2.50;;;7.10;57.80;;;;;;5052309;28;20043;-70
2021/03/06 01:18:05;;;;;;;2.93;2.10;;;7.00;57.80;;;;;;5053086;28;20431;-70
2021/03/06 01:20:31;;;;;;;3.10;2.30;;;7.00;58.20;;;;;;5052531;28;20021;-70
2021/03/06 01:22:57;;;;;;;3.40;2.33;;;6.90;58.10;;;;;;5053236;28;20025;-71
2021/03/06 01:25:23;;;;;;;4.03;2.67;;;6.90;57.90;;;;;;5053496;28;20032;-70
2021/03/06 01:27:49;;;;;;;3.63;2.60;;;6.90;58.00;;;;;;5052061;28;20504;-69
2021/03/06 01:30:16;;;;;;;3.67;2.50;;;6.90;57.60;;;;;;5052459;28;20049;-70
2021/03/06 01:32:42;;;;;;;3.67;2.80;;;6.80;57.80;;;;;;5052200;28;20108;-71
2021/03/06 01:35:09;;;;;;;4.07;2.70;;;6.80;58.20;;;;;;5052568;28;20108;-70
2021/03/06 01:37:36;;;;;;;5.40;3.13;;;6.80;56.70;;;;;;5051741;28;20497;-69
2021/03/06 01:40:13;;;;;;;4.63;3.20;;;6.80;57.10;;;;;;5052837;28;20049;-69
2021/03/06 01:42:40;;;;;;;3.80;2.87;;;6.70;57.50;;;;;;5052588;28;20037;-70
2021/03/06 01:45:07;;;;;;;3.97;3.20;;;6.70;56.70;;;;;;5051646;28;20358;-70
2021/03/06 01:47:33;;;;;;;3.50;2.63;;;6.70;57.10;;;;;;5052472;28;20021;-69
2021/03/06 01:49:59;;;;;;;5.63;3.50;;;6.70;57.30;;;;;;5051770;28;20025;-70
2021/03/06 01:52:25;;;;;;;5.40;2.73;;;6.70;57.10;;;;;;5051770;28;20032;-69
2021/03/06 01:54:54;;;;;;;4.37;3.00;;;6.60;57.40;;;;;;5051279;28;20406;-71
2021/03/06 01:57:19;;;;;;;4.33;2.87;;;6.60;57.70;;;;;;5052412;28;20037;-70
2021/03/06 01:59:45;;;;;;;4.33;2.90;;;6.60;58.00;;;;;;5049214;28;20032;-71
2021/03/06 02:02:12;;;;;;;3.80;2.93;;;6.60;57.40;;;;;;5050555;28;20408;-70
2021/03/06 02:04:38;;;;;;;5.50;3.60;;;6.60;57.40;;;;;;5051351;28;20029;-70
2021/03/06 02:07:04;;;;;;;5.40;3.30;;;6.60;56.70;;;;;;5052890;28;20052;-70
2021/03/06 02:09:30;;;;;;;3.67;3.00;;;6.60;56.60;;;;;;5051385;28;20029;-71
2021/03/06 02:12:07;;;;;;;5.93;3.33;;;6.60;56.60;;;;;;5051867;28;20413;-70
2021/03/06 02:14:59;;;;;;;5.37;3.30;;;6.60;55.70;;;;;;5052208;28;20104;-71
2021/03/06 02:17:46;;;;;;;5.07;3.60;;;6.60;56.00;;;;;;5051911;28;20037;-70
2021/03/06 02:20:41;;;;;;;4.23;3.40;;;6.60;56.30;;;;;;5051670;28;20036;-71
2021/03/06 02:23:35;;;;;;;5.73;3.77;;;6.60;56.10;;;;;;5051701;28;20021;-70
2021/03/06 02:26:28;;;;;;;5.30;4.00;;;6.60;55.90;;;;;;5051605;28;20037;-70
2021/03/06 02:29:06;;;;;;;;;;;6.70;56.20;;;;;;5045186;28;20063;-70
2021/03/06 02:31:34;;;;;;;4.83;3.50;;;6.70;55.50;;;;;;5052072;28;19958;-70
2021/03/06 02:34:05;;;;;;;5.67;3.70;;;6.60;55.50;;;;;;5052012;28;20094;-70
2021/03/06 02:36:35;;;;;;;5.20;3.70;;;6.70;55.00;;;;;;5051362;28;20409;-71
2021/03/06 02:39:03;;;;;;;5.20;3.63;;;6.70;54.90;;;;;;5050881;28;20033;-70
2021/03/06 02:41:32;;;;;;;6.90;3.80;;;6.60;54.70;;;;;;5051109;28;20052;-70
2021/03/06 02:44:00;;;;;;;5.30;3.80;;;6.60;55.10;;;;;;5052003;28;20048;-70
2021/03/06 02:46:26;;;;;;;6.73;4.00;;;6.60;54.70;;;;;;5051533;28;20029;-70
2021/03/06 02:48:54;;;;;;;5.40;3.97;;;6.60;55.00;;;;;;5050779;28;20024;-70
2021/03/06 02:51:20;;;;;;;5.57;3.77;;;6.60;54.70;;;;;;5051180;28;20045;-70
2021/03/06 02:53:46;;;;;;;5.07;3.60;;;6.60;54.60;;;;;;5050699;28;20037;-71
2021/03/06 02:56:12;;;;;;;6.83;4.57;;;6.60;54.30;;;;;;5050730;28;20029;-70
2021/03/06 02:58:56;;;;;;;6.40;4.20;;;6.60;54.40;;;;;;5051166;28;20465;-70
2021/03/06 03:01:46;;;;;;;7.77;4.07;;;6.50;54.20;;;;;;5052003;28;20082;-70
2021/03/06 03:04:49;;;;;;;5.80;4.30;;;6.50;54.40;;;;;;5051049;28;20018;-70
2021/03/06 03:07:23;;;;;;;4.75;3.63;;;6.50;54.10;;;;;;5052381;28;20036;-70
2021/03/06 03:09:53;;;;;;;6.20;4.50;;;6.50;53.70;;;;;;5052236;28;20053;-70
2021/03/06 03:12:24;;;;;;;5.20;3.93;;;6.50;54.00;;;;;;5051219;28;20441;-71
2021/03/06 03:15:18;;;;;;;11.13;4.27;;;6.40;54.20;;;;;;5051033;28;20094;-70
2021/03/06 03:17:54;;;;;;;6.23;4.10;;;6.40;54.10;;;;;;5052610;28;20545;-70
2021/03/06 03:20:42;;;;;;;6.20;4.27;;;6.40;54.00;;;;;;5052634;28;20350;-70
2021/03/06 03:23:50;;;;;;;6.23;3.90;;;6.40;53.50;;;;;;5052923;28;20025;-68
2021/03/06 03:26:18;;;;;;;6.50;4.13;;;6.40;53.40;;;;;;5050104;28;20029;-70
2021/03/06 03:28:47;;;;;;;6.23;4.13;;;6.50;52.10;;;;;;5052392;28;20112;-69
2021/03/06 03:31:14;;;;;;;4.97;3.70;;;6.50;51.70;;;;;;5052431;28;20092;-69
2021/03/06 03:33:44;;;;;;;5.77;4.00;;;6.50;51.80;;;;;;5052515;28;20032;-69
2021/03/06 03:36:10;;;;;;;6.57;4.17;;;6.50;52.10;;;;;;5052240;28;20031;-69
2021/03/06 03:38:36;;;;;;;6.90;4.17;;;6.40;52.20;;;;;;5054358;28;20021;-69
2021/03/06 03:41:08;;;;;;;6.60;4.07;;;6.40;51.80;;;;;;5055799;28;20025;-69
2021/03/06 03:43:34;;;;;;;6.07;4.00;;;6.40;51.60;;;;;;5056018;28;20029;-69
2021/03/06 03:46:02;;;;;;;7.50;3.67;;;6.40;51.70;;;;;;5055964;28;20032;-70
2021/03/06 03:48:28;;;;;;;7.00;4.30;;;6.40;52.00;;;;;;5055920;28;20021;-69
2021/03/06 03:50:54;;;;;;;8.13;3.63;;;6.40;51.40;;;;;;5055991;28;20138;-69
2021/03/06 03:53:20;;;;;;;5.90;3.70;;;6.40;50.80;;;;;;5055702;28;20013;-69
2021/03/06 03:55:45;;;;;;;5.57;3.83;;;6.40;51.00;;;;;;5055906;28;20075;-69
2021/03/06 03:58:12;;;;;;;7.17;3.47;;;6.40;51.20;;;;;;5055903;28;20052;-69
2021/03/06 04:00:38;;;;;;;8.40;4.37;;;6.30;51.60;;;;;;5055899;28;20495;-69
2021/03/06 04:03:05;;;;;;;5.47;3.83;;;6.30;52.00;;;;;;5055726;28;20107;-69
2021/03/06 04:05:31;;;;;;;5.97;3.80;;;6.30;51.40;;;;;;5055490;28;20100;-68
2021/03/06 04:07:57;;;;;;;5.13;3.63;;;6.40;50.20;;;;;;5054750;28;20021;-68
2021/03/06 04:10:24;;;;;;;6.23;3.60;;;6.30;50.30;;;;;;5053674;28;20377;-70
2021/03/06 04:12:52;;;;;;;6.40;3.77;;;6.30;50.50;;;;;;5054890;28;20503;-70
2021/03/06 04:15:19;;;;;;;5.23;3.70;;;6.30;50.50;;;;;;5055502;28;20092;-69
2021/03/06 04:17:46;;;;;;;4.67;3.40;;;6.20;50.50;;;;;;5054326;28;20291;-69
2021/03/06 04:20:16;;;;;;;4.87;3.10;;;6.20;50.50;;;;;;5053297;28;20108;-70
2021/03/06 04:22:42;;;;;;;5.50;3.30;;;6.20;49.50;;;;;;5055573;28;20024;-69
2021/03/06 04:25:09;;;;;;;4.43;3.30;;;6.20;49.40;;;;;;5054845;28;20033;-69
2021/03/06 04:27:35;;;;;;;5.87;3.30;;;6.10;49.70;;;;;;5053944;28;20158;-69
2021/03/06 04:30:02;;;;;;;4.83;3.17;;;6.20;48.80;;;;;;5054282;28;20021;-68
2021/03/06 04:32:28;;;;;;;5.60;3.47;;;6.20;47.90;;;;;;5055412;28;20104;-69
2021/03/06 04:34:53;;;;;;;4.80;3.17;;;6.20;48.30;;;;;;5055294;28;20155;-69
2021/03/06 04:37:19;;;;;;;3.97;2.83;;;6.20;48.10;;;;;;5055001;28;20037;-69
2021/03/06 04:39:45;;;;;;;5.37;2.80;;;6.20;47.90;;;;;;5054926;28;20507;-69
2021/03/06 04:42:10;;;;;;;5.40;3.03;;;6.10;48.30;;;;;;5054649;28;20025;-68
2021/03/06 04:44:36;;;;;;;5.23;3.20;;;6.10;48.10;;;;;;5054816;28;20025;-69
2021/03/06 04:47:06;;;;;;;4.50;3.10;;;6.00;48.10;;;;;;5054912;28;20466;-69
2021/03/06 04:49:32;;;;;;;4.63;3.10;;;6.10;47.10;;;;;;5054143;28;20096;-68
2021/03/06 04:51:59;;;;;;;6.50;2.90;;;6.10;46.80;;;;;;5054726;28;20025;-70
2021/03/06 04:54:26;;;;;;;5.30;3.00;;;6.00;46.90;;;;;;5054405;28;20508;-70
2021/03/06 04:56:52;;;;;;;4.57;3.00;;;6.00;47.00;;;;;;5054519;28;20052;-69
2021/03/06 04:59:18;;;;;;;6.67;3.40;;;6.00;47.50;;;;;;5054716;28;20025;-70
2021/03/06 05:01:44;;;;;;;6.20;2.70;;;5.90;47.80;;;;;;5054374;28;20342;-71
2021/03/06 05:04:10;;;;;;;3.40;2.67;;;5.90;47.90;;;;;;5054461;28;20461;-70
2021/03/06 05:06:36;;;;;;;5.20;2.97;;;5.90;47.10;;;;;;5054292;28;20025;-70
2021/03/06 05:09:02;;;;;;;6.17;2.87;;;5.90;46.40;;;;;;5053200;28;20103;-71
2021/03/06 05:11:28;;;;;;;3.73;2.60;;;6.00;47.10;;;;;;5052717;28;20396;-70
2021/03/06 05:13:53;;;;;;;4.87;2.77;;;6.00;47.10;;;;;;5053238;28;20096;-70
2021/03/06 05:16:19;;;;;;;3.83;2.70;;;5.90;47.00;;;;;;5052502;28;20374;-70
2021/03/06 05:18:45;;;;;;;4.13;2.60;;;5.90;46.90;;;;;;5053841;28;20462;-70
2021/03/06 05:21:11;;;;;;;3.70;2.77;;;5.90;46.70;;;;;;5054380;28;20404;-70
2021/03/06 05:23:37;;;;;;;3.13;2.23;;;5.80;46.30;;;;;;5054054;28;20107;-70
2021/03/06 05:26:02;;;;;;;5.83;2.47;;;5.80;47.10;;;;;;5054249;28;20059;-70
2021/03/06 05:28:28;;;;;;;3.90;2.50;;;5.80;46.70;;;;;;5054229;28;20082;-71
2021/03/06 05:30:54;;;;;;;3.77;2.60;;;5.80;46.70;;;;;;5053841;28;20048;-70
2021/03/06 05:33:20;;;;;;;4.20;2.60;;;5.70;47.10;;;;;;5054190;28;20043;-70
2021/03/06 05:35:46;;;;;;;5.43;2.43;;;5.70;46.80;;;;;;5053846;28;20124;-70
2021/03/06 05:38:12;;;;;;;5.47;2.30;;;5.70;47.40;;;;;;5051920;28;20021;-70
2021/03/06 05:40:41;;;;;;;6.93;2.80;;;5.60;47.80;;;;;;5052914;28;20029;-70
2021/03/06 05:43:07;;;;;;;5.00;2.77;;;5.60;47.20;;;;;;5053115;28;20025;-70
2021/03/06 05:45:33;;;;;;;5.40;2.60;;;5.50;47.30;;;;;;5052173;28;20044;-71
2021/03/06 05:48:00;;;;;;;4.43;2.57;;;5.50;48.00;;;;;;5052447;28;20029;-70
2021/03/06 05:50:27;;;;;;;4.20;2.57;;;5.50;48.10;;;;;;5053644;28;20025;-70
2021/03/06 05:52:55;;;;;;;4.67;2.50;;;5.40;48.40;;;;;;5053581;28;20024;-70
2021/03/06 05:55:23;;;;;;;4.93;2.50;;;5.40;48.20;;;;;;5053625;28;20037;-69
2021/03/06 05:57:49;;;;;;;3.83;2.47;;;5.40;48.90;;;;;;5053531;28;20048;-69
2021/03/06 06:00:15;;;;;;;4.37;2.60;;;5.40;49.00;;;;;;5053650;28;20025;-71
2021/03/06 06:02:42;;;;;;;4.70;2.50;;;5.40;48.80;;;;;;5053800;28;20104;-70
2021/03/06 06:05:08;;;;;;;4.23;2.70;;;5.40;48.80;;;;;;5053303;28;20074;-70
2021/03/06 06:07:39;;;;;;;3.93;2.37;;;5.50;48.70;;;;;;5053285;28;20028;-69
2021/03/06 06:10:05;;;;;;;3.40;2.40;;;5.50;49.00;;;;;;5053380;28;20433;-70
2021/03/06 06:12:31;;;;;;;6.10;2.67;;;5.50;48.90;;;;;;5051978;28;20032;-70
2021/03/06 06:14:57;;;;;;;3.47;2.23;;;5.50;48.30;;;;;;5052280;28;20478;-71
2021/03/06 06:17:23;;;;;;;3.37;2.23;;;5.50;48.30;;;;;;5051614;28;20063;-70
2021/03/06 06:19:49;;;;;;;4.83;2.40;;;5.50;49.30;;;;;;5053174;28;20548;-69
2021/03/06 06:22:23;;;;;;;4.30;2.37;;;5.50;49.00;;;;;;5053244;28;20029;-70
2021/03/06 06:24:53;;;;;;;3.73;2.33;;;5.50;49.90;;;;;;5053221;28;20033;-69
2021/03/06 06:27:33;;;;;;;4.00;2.43;;;5.50;50.50;;;;;;5052282;28;20029;-70
2021/03/06 06:30:00;;;;;;;5.57;2.63;;;5.50;49.50;;;;;;5053345;28;20532;-70
2021/03/06 06:32:39;;;;;;;5.17;2.37;;;5.60;48.30;;;;;;5053066;28;20431;-69
2021/03/06 06:35:07;;;;;;;4.33;2.13;;;5.70;47.50;;;;;;5054097;28;20029;-69
2021/03/06 06:37:33;;;;;;;3.80;2.17;;;5.70;46.80;;;;;;5052689;28;20080;-69
2021/03/06 06:40:00;;;;;;;5.03;2.37;;;5.80;46.00;;;;;;5052308;28;20106;-69
2021/03/06 06:42:34;;;;;;;3.77;2.43;;;5.80;46.00;;;;;;5052453;28;20389;-69
2021/03/06 06:45:00;;;;;;;5.50;2.23;;;5.80;46.90;;;;;;5052342;28;20029;-69
2021/03/06 06:47:37;;;;;;;4.23;2.43;;;5.90;45.80;;;;;;5052294;28;20131;-68
2021/03/06 06:50:04;;;;;;;4.83;2.43;;;5.90;45.10;;;;;;5052078;28;20410;-69
2021/03/06 06:52:36;;;;;;;4.73;2.10;;;5.90;45.30;;;;;;5052028;28;20029;-69
2021/03/06 06:55:04;;;;;;;3.13;2.05;;;5.90;45.40;;;;;;5051487;28;20061;-70
2021/03/06 06:57:30;;;;;;;3.77;2.30;;;5.90;45.30;;;;;;5050704;28;20048;-70
2021/03/06 07:00:07;;;;;;;3.97;2.20;;;5.90;44.50;;;;;;5052746;28;20021;-69
2021/03/06 07:02:33;;;;;;;5.40;2.30;;;5.90;45.40;;;;;;5052620;28;20028;-68
2021/03/06 07:05:01;;;;;;;3.00;1.90;;;6.00;45.40;;;;;;5052360;28;20120;-70
2021/03/06 07:07:39;;;;;;;4.27;2.20;;;6.00;44.30;;;;;;5052711;28;20468;-69
2021/03/06 07:10:13;;;;;;;3.23;2.07;;;6.10;44.80;;;;;;5051390;28;20036;-70
2021/03/06 07:12:54;;;;;;;5.87;2.40;;;6.20;44.20;;;;;;5037131;28;20418;-70
2021/03/06 07:15:22;;;;;;;5.83;2.10;;;6.20;44.20;;;;;;5036424;28;20025;-69
2021/03/06 07:17:50;;;;;;;4.50;2.00;;;6.20;44.00;;;;;;5036792;28;20064;-68
2021/03/06 07:20:22;;;;;;;3.40;2.03;;;6.30;44.30;;;;;;5036815;28;20026;-70
2021/03/06 07:22:56;;;;;;;6.10;2.13;;;6.30;43.40;;;;;;5036409;28;20033;-69
2021/03/06 07:25:25;;;;;;;5.60;2.47;;;6.30;44.10;;;;;;5036429;28;20093;-70
2021/03/06 07:27:51;;;;;;;4.30;2.00;;;6.40;43.90;;;;;;5036478;28;20113;-70
2021/03/06 07:30:18;;;;;;;3.17;1.90;;;6.50;43.20;;;;;;5033721;28;20112;-70
2021/03/06 07:32:48;;;;;;;3.50;2.07;;;6.50;42.70;;;;;;5033454;28;20434;-70
2021/03/06 07:35:15;;;;;;;4.77;2.23;;;6.50;43.80;;;;;;5034303;28;20116;-70
2021/03/06 07:37:42;;;;;;;4.10;2.10;;;6.50;43.70;;;;;;5035895;28;20220;-70
2021/03/06 07:40:13;;;;;;;5.53;1.73;;;6.50;43.40;;;;;;5036299;28;20478;-70
2021/03/06 07:42:42;;;;;;;6.90;2.50;;;6.60;42.10;;;;;;5036213;28;20064;-71
2021/03/06 07:45:19;;;;;;;3.87;2.17;;;6.60;42.70;;;;;;5035619;28;20140;-71
2021/03/06 07:47:59;;;;;;;4.30;2.03;;;6.70;41.40;;;;;;5032438;28;20026;-70
2021/03/06 07:50:30;;;;;;;3.90;1.90;;;6.70;42.30;;;;;;5034247;28;20419;-71
2021/03/06 07:52:57;;;;;;;4.17;2.27;;;6.70;43.00;;;;;;5030806;28;20351;-70
2021/03/06 07:55:27;;;;;;;3.70;2.10;;;6.80;42.70;;;;;;5032920;28;20488;-69
2021/03/06 07:58:12;;;;;;;3.17;1.60;;;6.80;42.40;;;;;;5034088;28;20030;-71
2021/03/06 08:00:54;;;;;;;4.20;1.90;;;6.90;41.70;;;;;;5035507;28;20109;-71
2021/03/06 08:03:34;;;;;;;4.23;1.80;;;6.90;41.40;;;;;;5034877;28;20071;-71
2021/03/06 08:06:01;;;;;;;5.57;1.90;;;6.90;41.60;;;;;;5032461;28;20470;-72
2021/03/06 08:08:33;;;;;;;3.23;1.93;;;7.00;42.20;;;;;;5032237;28;20100;-72
2021/03/06 08:11:05;;;;;;;4.17;2.00;;;7.00;41.80;;;;;;5033500;28;20028;-71
2021/03/06 08:13:47;;;;;;;4.10;1.60;;;7.00;41.10;;;;;;5034890;28;20017;-70
2021/03/06 08:16:21;;;;;;;3.23;1.80;;;7.10;41.00;;;;;;5034685;28;20095;-70
2021/03/06 08:18:54;;;;;;;2.60;1.60;;;7.10;41.90;;;;;;5034666;28;20022;-70
2021/03/06 08:21:36;;;;;;;;;;;7.20;42.60;;;;;;5035165;28;20516;-72
2021/03/06 08:24:14;;;;;;;2.97;1.60;;;7.20;43.20;;;;;;5033724;28;20000;-71
2021/03/06 08:27:01;;;;;;;3.73;1.90;;;7.30;42.50;;;;;;5034402;28;20013;-71
2021/03/06 08:29:26;;;;;;;3.20;1.73;;;7.40;42.10;;;;;;5034577;28;20039;-71
2021/03/06 08:31:56;;;;;;;3.33;1.70;;;7.50;41.80;;;;;;5034409;28;20093;-71
2021/03/06 08:34:25;;;;;;;3.67;1.67;;;7.50;41.50;;;;;;5034436;28;20025;-70
2021/03/06 08:36:51;;;;;;;4.73;1.60;;;7.50;41.50;;;;;;5034277;28;20048;-70
2021/03/06 08:39:18;;;;;;;5.57;2.00;;;7.60;40.90;;;;;;5034258;28;20030;-71
2021/03/06 08:41:44;;;;;;;4.47;1.83;;;7.70;40.60;;;;;;5035016;28;20048;-70
2021/03/06 08:44:09;;;;;;;3.23;1.60;;;7.70;41.50;;;;;;5035078;28;20466;-71
2021/03/06 08:46:40;;;;;;;3.50;1.83;;;7.80;41.80;;;;;;5034981;28;20079;-70
2021/03/06 08:49:08;;;;;;;3.63;1.87;;;7.80;40.80;;;;;;5033895;28;20108;-71
2021/03/06 08:51:33;;;;;;;4.00;1.87;;;7.90;41.30;;;;;;5034609;28;20029;-70
2021/03/06 08:53:59;;;;;;;5.00;1.90;;;7.90;41.40;;;;;;5034244;28;20505;-70
2021/03/06 08:56:38;;;;;;;4.10;2.20;;;8.00;40.60;;;;;;5034751;28;20112;-70
2021/03/06 08:59:03;;;;;;;4.40;2.13;;;8.00;40.30;;;;;;5034822;28;20459;-70
2021/03/06 09:01:33;;;;;;;3.93;2.00;;;8.00;40.40;;;;;;5034679;28;20030;-70
2021/03/06 09:03:59;;;;;;;3.67;1.97;;;8.10;41.20;;;;;;5034806;28;20533;-70
2021/03/06 09:06:38;;;;;;;2.93;1.97;;;8.10;39.80;;;;;;5034321;28;20160;-70
2021/03/06 09:09:06;;;;;;;4.17;2.00;;;8.20;40.00;;;;;;5033515;28;20033;-71
2021/03/06 09:11:32;;;;;;;4.57;2.33;;;8.20;40.90;;;;;;5033751;28;20481;-71
2021/03/06 09:13:58;;;;;;;4.47;1.80;;;8.20;39.90;;;;;;5034677;28;20100;-70
2021/03/06 09:16:24;;;;;;;3.13;1.77;;;8.30;39.80;;;;;;5033204;28;20044;-70
2021/03/06 09:18:50;;;;;;;2.53;1.70;;;8.40;40.60;;;;;;5034335;28;20030;-70
2021/03/06 09:21:23;;;;;;;2.57;1.63;;;8.40;40.40;;;;;;5034339;28;20040;-70
2021/03/06 09:23:50;;;;;;;;;;;8.50;40.40;;;;;;5034942;28;20025;-70
2021/03/06 09:26:19;;;;;;;4.57;2.50;;;8.50;40.20;;;;;;5034577;28;19951;-70
2021/03/06 09:28:47;;;;;;;4.13;1.60;;;8.60;38.30;;;;;;5034278;28;20107;-70
2021/03/06 09:31:25;;;;;;;3.70;2.00;;;8.60;39.20;;;;;;5034407;28;20017;-70
2021/03/06 09:33:50;;;;;;;2.67;1.80;;;8.70;39.80;;;;;;5034224;28;20041;-70
2021/03/06 09:36:21;;;;;;;4.07;2.07;;;8.80;40.50;;;;;;5033990;28;20064;-70
2021/03/06 09:38:51;;;;;;;3.37;2.27;;;8.90;41.10;;;;;;5033953;28;20033;-70
2021/03/06 09:41:22;;;;;;;4.33;2.10;;;9.00;39.30;;;;;;5033983;28;20525;-70
2021/03/06 09:43:52;;;;;;;2.53;1.90;;;9.10;39.40;;;;;;5033681;28;20105;-70
2021/03/06 09:46:25;;;;;;;4.73;1.70;;;9.10;38.60;;;;;;5033946;28;20086;-70
2021/03/06 09:48:55;;;;;;;3.05;1.77;;;9.20;40.00;;;;;;5033671;28;20064;-70
2021/03/06 09:51:23;;;;;;;3.67;1.80;;;9.40;41.10;;;;;;5033782;28;20079;-70
2021/03/06 09:53:57;;;;;;;3.60;2.17;;;9.40;38.10;;;;;;5033271;28;20037;-70
2021/03/06 09:56:22;;;;;;;17.23;2.40;;;9.50;37.60;;;;;;5033818;28;20071;-70
2021/03/06 09:59:00;;;;;;;3.40;2.00;;;9.50;38.30;;;;;;5033506;28;20065;-70
2021/03/06 10:01:26;;;;;;;4.87;2.07;;;9.50;38.30;;;;;;5033701;28;20045;-70
2021/03/06 10:03:52;;;;;;;3.90;2.10;;;9.50;38.00;;;;;;5033375;28;20435;-70
2021/03/06 10:06:21;;;;;;;3.97;2.00;;;9.50;38.80;;;;;;5033243;28;20022;-71
2021/03/06 10:08:56;;;;;;;4.10;2.10;;;9.50;37.00;;;;;;5033685;28;20026;-70
2021/03/06 10:11:59;;;;;;;4.47;2.03;;;9.50;38.50;;;;;;5033442;28;20022;-69
2021/03/06 10:14:25;;;;;;;3.80;1.98;;;9.50;36.90;;;;;;5031225;28;20114;-70
2021/03/06 10:17:00;;;;;;;3.07;1.90;;;9.50;37.80;;;;;;5033350;28;20116;-70
2021/03/06 10:19:31;;;;;;;2.90;1.93;;;9.60;38.30;;;;;;5033291;28;20048;-70
2021/03/06 10:22:09;;;;;;;3.27;2.00;;;9.70;37.20;;;;;;5033207;28;20025;-70
2021/03/06 10:24:58;;;;;;;3.13;2.00;;;9.70;39.30;;;;;;5033109;28;20025;-69
2021/03/06 10:27:51;;;;;;;3.77;2.13;;;9.80;38.20;;;;;;5033420;28;20470;-70
2021/03/06 10:30:25;;;;;;;4.07;2.10;;;9.90;38.40;;;;;;5032976;28;20021;-70
2021/03/06 10:32:56;;;;;;;2.40;1.70;;;10.00;37.00;;;;;;5033072;28;20014;-71
2021/03/06 10:35:51;;;;;;;3.40;1.90;;;10.00;38.40;;;;;;5033529;28;20021;-68
2021/03/06 10:38:29;;;;;;;4.13;2.03;;;10.00;37.40;;;;;;5031719;28;20041;-71
2021/03/06 10:41:00;;;;;;;6.93;4.23;;;10.10;36.80;;;;;;5032952;28;20405;-71
2021/03/06 10:43:28;;;;;;;6.80;2.87;;;10.10;36.20;;;;;;5032628;28;20030;-72
2021/03/06 10:45:55;;;;;;;5.60;1.87;;;10.20;37.50;;;;;;5032514;28;20020;-71
2021/03/06 10:48:31;;;;;;;4.77;1.63;;;10.30;36.90;;;;;;5033325;28;20022;-68
2021/03/06 10:50:58;;;;;;;2.50;1.70;;;10.30;37.30;;;;;;5036996;28;20021;-68
2021/03/06 10:53:24;;;;;;;3.70;2.20;;;10.50;37.20;;;;;;5037000;28;20481;-69
2021/03/06 10:55:51;;;;;;;3.40;2.40;;;10.50;35.80;;;;;;5036545;28;20026;-69
2021/03/06 10:58:18;;;;;;;2.40;1.67;;;10.60;36.40;;;;;;5035528;28;20386;-69
2021/03/06 11:00:46;;;;;;;2.50;1.70;;;10.70;36.00;;;;;;5036908;28;20022;-70
2021/03/06 11:03:18;;;;;;;4.28;2.10;;;10.70;36.80;;;;;;5036993;28;20028;-69
2021/03/06 11:05:44;;;;;;;2.45;1.90;;;10.80;35.90;;;;;;5035953;28;20374;-69
2021/03/06 11:08:14;;;;;;;3.40;1.60;;;10.90;35.90;;;;;;5036954;28;20029;-69
2021/03/06 11:10:42;;;;;;;3.35;2.22;;;10.90;35.20;;;;;;5036949;28;20029;-69
2021/03/06 11:13:08;;;;;;;2.42;1.67;;;11.00;33.50;;;;;;5036596;28;20030;-68
2021/03/06 11:15:35;;;;;;;5.20;1.70;;;10.90;35.40;;;;;;5036461;28;20017;-69
2021/03/06 11:18:02;;;;;;;3.15;1.70;;;11.00;35.40;;;;;;5036629;28;20446;-68
2021/03/06 11:20:31;;;;;;;2.97;1.90;;;11.00;35.10;;;;;;5036973;28;20036;-68
2021/03/06 11:23:01;;;;;;;2.97;1.57;;;11.00;36.50;;;;;;5036620;28;20036;-68
2021/03/06 11:25:27;;;;;;;2.55;1.80;;;11.10;36.20;;;;;;5037229;28;20025;-69
2021/03/06 11:27:58;;;;;;;4.82;2.67;;;11.20;35.10;;;;;;5036719;28;20108;-68
2021/03/06 11:30:32;;;;;;;3.35;1.88;;;11.30;34.20;;;;;;5036278;28;20030;-68
2021/03/06 11:32:59;;;;;;;2.58;1.70;;;11.30;34.10;;;;;;5036539;28;20053;-68
2021/03/06 11:35:25;;;;;;;3.50;2.17;;;11.30;34.00;;;;;;5036308;28;20053;-68
2021/03/06 11:37:52;;;;;;;3.10;1.90;;;11.30;34.10;;;;;;5034816;28;20100;-69
2021/03/06 11:40:21;;;;;;;4.38;1.70;;;11.40;34.20;;;;;;5035917;28;20033;-68
2021/03/06 11:42:47;;;;;;;2.97;1.85;;;11.40;34.70;;;;;;5035245;28;20025;-68
2021/03/06 11:45:15;;;;;;;2.60;1.67;;;11.50;35.30;;;;;;5034503;28;20105;-68
2021/03/06 11:47:41;;;;;;;3.25;1.75;;;11.60;35.80;;;;;;5035197;28;20053;-69
2021/03/06 11:50:08;;;;;;;3.50;2.30;;;11.60;33.40;;;;;;5034979;28;20024;-69
2021/03/06 11:52:35;;;;;;;3.30;2.00;;;11.70;33.80;;;;;;5034248;28;20033;-69
2021/03/06 11:55:01;;;;;;;8.48;2.10;;;11.70;34.10;;;;;;5034441;28;20073;-69
2021/03/06 11:57:27;;;;;;;3.03;1.70;;;11.70;33.80;;;;;;5035115;28;20111;-69
2021/03/06 11:59:54;;;;;;;2.63;1.85;;;11.70;33.70;;;;;;5035344;28;20029;-69
2021/03/06 12:02:20;;;;;;;4.43;1.98;;;11.70;33.90;;;;;;5035689;28;20041;-70
2021/03/06 12:04:46;;;;;;;3.70;1.90;;;11.70;32.60;;;;;;5035605;28;20029;-69
2021/03/06 12:07:13;;;;;;;4.20;2.42;;;11.70;33.30;;;;;;5035527;28;20030;-68
2021/03/06 12:09:38;;;;;;;4.70;2.38;;;11.70;33.00;;;;;;5035706;28;20028;-68
2021/03/06 12:12:05;;;;;;;4.45;1.77;;;11.70;33.50;;;;;;5035684;28;20022;-68
2021/03/06 12:14:31;;;;;;;3.78;1.80;;;11.70;33.70;;;;;;5035117;28;20025;-68
2021/03/06 12:16:56;;;;;;;3.50;2.10;;;11.70;33.00;;;;;;5034950;28;20032;-71
2021/03/06 12:19:22;;;;;;;5.50;2.33;;;11.80;34.20;;;;;;5035365;28;20029;-68
2021/03/06 12:21:48;;;;;;;3.25;2.13;;;11.80;33.60;;;;;;5034921;28;20363;-68
2021/03/06 12:24:13;;;;;;;2.78;1.80;;;11.90;34.60;;;;;;5035485;28;20083;-71
2021/03/06 12:26:39;;;;;;;4.25;1.60;;;12.00;34.60;;;;;;5035348;28;20490;-67
2021/03/06 12:29:04;;;;;;;4.78;2.05;;;12.10;35.00;;;;;;5035056;28;20395;-68
2021/03/06 12:31:30;;;;;;;3.15;2.00;;;12.20;34.70;;;;;;5035224;28;20390;-71
2021/03/06 12:33:56;;;;;;;3.45;2.00;;;12.20;33.50;;;;;;5035372;28;20490;-68
2021/03/06 12:36:22;;;;;;;2.70;1.90;;;12.20;33.40;;;;;;5035315;28;20041;-68
2021/03/06 12:38:48;;;;;;;3.75;2.03;;;12.20;32.70;;;;;;5035018;28;20130;-69
2021/03/06 12:41:13;;;;;;;3.20;1.70;;;12.20;33.60;;;;;;5034853;28;20029;-68
2021/03/06 12:43:40;;;;;;;4.95;1.75;;;12.10;31.90;;;;;;5035085;28;20029;-68
2021/03/06 12:46:05;;;;;;;2.80;1.80;;;12.10;33.30;;;;;;5034875;28;20022;-68
2021/03/06 12:48:31;;;;;;;3.20;1.80;;;12.20;33.40;;;;;;5034710;28;20116;-71
2021/03/06 12:50:57;;;;;;;3.25;2.13;;;12.20;32.50;;;;;;5034750;28;20064;-68
2021/03/06 12:53:22;;;;;;;3.22;1.92;;;12.20;33.50;;;;;;5034197;28;20112;-68
2021/03/06 12:55:48;;;;;;;7.05;2.30;;;12.10;33.60;;;;;;5034502;28;20456;-69
2021/03/06 12:58:14;;;;;;;3.03;1.98;;;12.10;33.20;;;;;;5034827;28;20040;-68
2021/03/06 13:00:40;;;;;;;3.67;1.98;;;12.10;32.10;;;;;;5031849;28;20026;-68
2021/03/06 13:03:05;;;;;;;3.08;2.05;;;12.10;32.40;;;;;;5030459;28;20034;-69
2021/03/06 13:05:32;;;;;;;4.25;2.33;;;12.10;32.80;;;;;;5031608;28;20033;-69